Time;durP1;ratioP1;P1;durP2;ratioP2;P2;SDS_P1;SDS_P2;PMS_P1;PMS_P2;Temp;Humidity;BMP_temperature;BMP_pressure;BME280_temperature;BME280_humidity;BME280_pressure;Samples;Min_cycle;Max_cycle;Signal;HPM_P1;HPM_P2
2021/06/16 07:32:01;;;;;;;10.43;5.65;;;19.80;99.90;;;;;;5524826;23;20076;-80
2021/06/16 07:34:28;;;;;;;9.30;5.38;;;19.90;99.90;;;;;;5020690;28;20037;-80
2021/06/16 07:36:54;;;;;;;8.13;5.57;;;20.10;99.90;;;;;;5007518;28;20041;-81
2021/06/16 07:39:21;;;;;;;9.68;5.22;;;20.30;99.90;;;;;;4999169;28;20045;-81
2021/06/16 07:41:48;;;;;;;9.98;5.95;;;20.60;99.90;;;;;;5026416;28;20105;-83
2021/06/16 07:44:16;;;;;;;11.15;5.35;;;21.00;99.90;;;;;;5009315;28;20096;-81
2021/06/16 07:46:43;;;;;;;9.52;5.60;;;21.10;99.90;;;;;;5005216;28;20052;-82
2021/06/16 07:49:10;;;;;;;17.50;6.20;;;21.30;99.90;;;;;;5031509;28;20099;-82
2021/06/16 07:51:37;;;;;;;10.93;6.05;;;21.30;99.90;;;;;;5010846;28;20065;-82
2021/06/16 07:54:10;;;;;;;11.07;5.80;;;21.30;99.90;;;;;;5019417;28;20057;-82
2021/06/16 07:56:39;;;;;;;18.55;5.75;;;21.20;99.90;;;;;;5008746;28;20069;-86
2021/06/16 07:59:06;;;;;;;14.48;6.43;;;21.20;99.90;;;;;;5021269;28;20087;-82
2021/06/16 08:01:33;;;;;;;9.20;5.85;;;21.30;99.90;;;;;;5006140;28;20092;-83
2021/06/16 08:04:01;;;;;;;9.60;5.30;;;21.30;99.90;;;;;;5026610;28;20142;-82
2021/06/16 08:06:28;;;;;;;11.80;5.38;;;21.30;99.90;;;;;;5007247;28;20069;-84
2021/06/16 08:08:55;;;;;;;17.80;6.45;;;21.20;99.90;;;;;;5024644;28;20108;-84
2021/06/16 08:11:23;;;;;;;8.20;5.60;;;21.20;99.90;;;;;;5009873;28;20515;-86
2021/06/16 08:13:50;;;;;;;9.48;6.38;;;21.20;99.90;;;;;;5025896;28;20106;-84
2021/06/16 08:16:18;;;;;;;7.05;5.45;;;21.30;99.90;;;;;;5028978;28;20049;-83
2021/06/16 08:18:46;;;;;;;10.95;5.40;;;21.40;99.90;;;;;;5003715;28;20057;-85
2021/06/16 08:21:14;;;;;;;6.57;5.53;;;21.40;99.90;;;;;;5027178;28;20126;-83
2021/06/16 08:23:42;;;;;;;8.30;5.37;;;21.40;99.90;;;;;;5024406;28;20057;-81
2021/06/16 08:26:10;;;;;;;8.73;5.70;;;21.50;99.90;;;;;;5008490;28;20054;-83
2021/06/16 08:28:38;;;;;;;10.07;5.82;;;21.60;99.90;;;;;;5030618;28;20555;-83
2021/06/16 08:31:05;;;;;;;8.95;5.70;;;21.60;99.90;;;;;;5024946;28;20530;-82
2021/06/16 08:33:33;;;;;;;7.78;5.72;;;21.60;99.90;;;;;;5023606;28;20810;-82
2021/06/16 08:36:00;;;;;;;7.93;5.53;;;21.70;99.90;;;;;;5026257;28;20065;-81
2021/06/16 08:38:27;;;;;;;7.53;5.90;;;21.60;99.90;;;;;;5022640;28;20095;-82
2021/06/16 08:40:54;;;;;;;7.97;5.30;;;21.60;99.90;;;;;;5027428;28;20467;-80
2021/06/16 08:43:21;;;;;;;9.30;6.15;;;21.70;99.90;;;;;;5022766;28;20053;-81
2021/06/16 08:45:50;;;;;;;7.68;5.20;;;21.90;99.90;;;;;;5026888;28;20045;-82
2021/06/16 08:48:17;;;;;;;7.68;5.53;;;22.10;99.90;;;;;;5022890;28;20053;-81
2021/06/16 08:50:44;;;;;;;51.53;9.65;;;22.40;99.90;;;;;;5027156;28;20471;-82
2021/06/16 08:53:11;;;;;;;38.50;8.20;;;22.60;99.90;;;;;;5025423;28;20045;-84
2021/06/16 08:55:38;;;;;;;8.90;4.93;;;22.80;99.90;;;;;;5028780;28;21242;-85
2021/06/16 08:58:05;;;;;;;9.18;5.55;;;23.00;99.90;;;;;;5029251;28;20061;-83
2021/06/16 09:00:31;;;;;;;6.60;4.25;;;23.10;99.90;;;;;;5028145;28;20467;-82
2021/06/16 09:02:58;;;;;;;11.00;5.10;;;23.20;99.90;;;;;;5024836;28;20065;-83
2021/06/16 09:05:39;;;;;;;6.38;4.75;;;23.20;99.90;;;;;;5026254;28;20456;-83
2021/06/16 09:08:19;;;;;;;9.65;4.97;;;23.40;99.90;;;;;;5025543;28;20112;-81
2021/06/16 09:10:52;;;;;;;10.82;4.88;;;23.60;99.90;;;;;;5042862;28;20131;-82
2021/06/16 09:13:32;;;;;;;8.63;4.60;;;23.70;99.90;;;;;;5023746;28;20424;-84
2021/06/16 09:16:22;;;;;;;22.13;5.82;;;23.70;99.90;;;;;;5025056;28;20049;-83
2021/06/16 09:18:49;;;;;;;9.30;4.35;;;23.70;99.90;;;;;;5023223;28;20056;-84
2021/06/16 09:21:38;;;;;;;9.63;4.05;;;23.70;99.90;;;;;;5025155;28;20058;-82
2021/06/16 09:24:08;;;;;;;7.40;4.03;;;23.80;99.90;;;;;;5026184;28;20128;-81
2021/06/16 09:26:38;;;;;;;7.53;4.80;;;23.80;99.90;;;;;;5040712;28;20073;-83
2021/06/16 09:29:07;;;;;;;7.82;4.07;;;23.80;99.90;;;;;;5029086;28;20120;-82
2021/06/16 09:31:36;;;;;;;17.98;5.45;;;23.80;99.90;;;;;;5015222;28;20105;-82
2021/06/16 09:34:09;;;;;;;8.07;4.15;;;23.90;99.90;;;;;;5009507;28;20046;-84
2021/06/16 09:36:57;;;;;;;6.82;4.63;;;24.00;99.90;;;;;;5000517;28;20046;-84
2021/06/16 09:39:28;;;;;;;7.97;4.65;;;24.10;99.90;;;;;;5007592;28;20480;-83
2021/06/16 09:42:13;;;;;;;6.13;3.95;;;24.20;99.90;;;;;;5007371;28;20555;-82
2021/06/16 09:44:43;;;;;;;8.02;4.43;;;24.30;99.90;;;;;;4991471;28;20042;-85
2021/06/16 09:47:14;;;;;;;9.75;4.00;;;24.40;99.90;;;;;;5003320;28;20053;-84
2021/06/16 09:50:01;;;;;;;22.15;5.28;;;24.50;99.90;;;;;;4993021;28;20042;-84
2021/06/16 09:52:43;;;;;;;9.32;4.63;;;24.50;99.90;;;;;;5002847;28;20038;-85
2021/06/16 09:55:13;;;;;;;6.05;4.60;;;24.60;99.90;;;;;;5001920;28;20065;-83
2021/06/16 09:57:59;;;;;;;6.88;3.60;;;24.50;99.90;;;;;;5001482;28;20057;-85
2021/06/16 10:00:37;;;;;;;8.70;4.18;;;24.60;99.90;;;;;;5000455;28;20127;-84
2021/06/16 10:03:10;;;;;;;;;;;24.80;99.90;;;;;;4998858;28;20516;-83
2021/06/16 10:06:09;;;;;;;6.38;4.18;;;24.80;99.90;;;;;;5005784;28;19956;-83
2021/06/16 10:08:44;;;;;;;7.55;3.92;;;24.90;99.90;;;;;;4997375;28;20098;-84
2021/06/16 10:11:14;;;;;;;7.40;4.18;;;24.90;99.90;;;;;;4997596;28;20069;-83
2021/06/16 10:13:42;;;;;;;8.57;3.72;;;24.80;99.90;;;;;;5000190;28;20057;-85
2021/06/16 10:16:10;;;;;;;5.18;3.35;;;24.80;99.90;;;;;;5004564;28;20104;-83
2021/06/16 10:18:44;;;;;;;8.48;3.40;;;24.80;99.90;;;;;;4987204;28;20076;-84
2021/06/16 10:21:13;;;;;;;8.05;3.60;;;24.90;99.90;;;;;;5004669;28;20047;-84
2021/06/16 10:23:40;;;;;;;8.55;3.30;;;25.00;99.90;;;;;;4999779;28;20435;-84
2021/06/16 10:26:15;;;;;;;9.00;3.45;;;24.90;99.90;;;;;;5005790;28;20097;-85
2021/06/16 10:28:47;;;;;;;6.20;3.42;;;25.10;99.90;;;;;;4996537;28;20054;-82
2021/06/16 10:31:19;;;;;;;7.10;2.70;;;25.10;99.90;;;;;;5004070;28;20096;-83
2021/06/16 10:33:56;;;;;;;7.75;2.80;;;25.00;99.90;;;;;;5027117;28;20052;-85
2021/06/16 10:36:24;;;;;;;7.22;3.08;;;25.10;99.90;;;;;;5024108;28;20048;-83
2021/06/16 10:38:57;;;;;;;6.93;3.47;;;25.10;99.90;;;;;;5026154;28;20049;-87
2021/06/16 10:41:48;;;;;;;4.50;2.97;;;25.20;99.90;;;;;;5023520;28;20408;-85
2021/06/16 10:44:27;;;;;;;16.45;5.13;;;25.30;99.90;;;;;;5023785;28;20057;-88
2021/06/16 10:47:01;;;;;;;9.38;4.18;;;25.30;99.90;;;;;;5018726;28;20058;-84
2021/06/16 10:49:49;;;;;;;7.43;4.20;;;25.40;99.90;;;;;;5021007;28;20050;-88
2021/06/16 10:52:17;;;;;;;7.85;4.78;;;25.50;99.90;;;;;;5015873;28;20100;-87
2021/06/16 10:54:56;;;;;;;5.93;4.82;;;25.60;99.90;;;;;;5021776;28;20049;-84
2021/06/16 10:57:23;;;;;;;10.77;5.57;;;25.70;99.90;;;;;;5020330;28;20119;-89
2021/06/16 10:59:50;;;;;;;8.65;4.90;;;25.60;99.90;;;;;;5019993;28;20065;-84
2021/06/16 11:02:18;;;;;;;5.53;4.40;;;25.50;99.90;;;;;;5025704;28;20139;-83
2021/06/16 11:04:46;;;;;;;7.88;4.38;;;25.40;99.90;;;;;;5020898;28;20069;-88
2021/06/16 11:07:30;;;;;;;7.07;4.68;;;25.50;99.90;;;;;;5024867;28;20104;-85
2021/06/16 11:10:03;;;;;;;9.18;4.68;;;25.50;99.90;;;;;;5022023;28;20096;-85
2021/06/16 11:12:32;;;;;;;10.05;5.32;;;25.60;99.90;;;;;;5012620;28;20132;-84
2021/06/16 11:15:09;;;;;;;8.10;5.35;;;25.70;99.90;;;;;;5014799;28;20045;-83
2021/06/16 11:17:39;;;;;;;8.80;4.82;;;25.60;99.90;;;;;;5021367;28;20046;-84
2021/06/16 11:20:08;;;;;;;5.63;4.68;;;25.50;99.90;;;;;;5021531;28;20053;-84
2021/06/16 11:22:38;;;;;;;7.50;5.20;;;25.60;99.90;;;;;;5015057;28;20057;-88
2021/06/16 11:25:08;;;;;;;6.20;5.38;;;25.70;99.90;;;;;;5024643;28;20120;-86
2021/06/16 11:27:54;;;;;;;9.10;5.20;;;25.70;99.90;;;;;;5027277;28;20049;-83
2021/06/16 11:30:30;;;;;;;8.65;5.50;;;25.70;99.90;;;;;;5022674;28;20147;-84
2021/06/16 11:33:12;;;;;;;8.18;6.30;;;25.80;99.90;;;;;;5000580;28;20081;-85
2021/06/16 11:35:40;;;;;;;7.35;4.97;;;25.80;99.90;;;;;;4998556;28;20339;-84
2021/06/16 11:38:09;;;;;;;8.18;5.07;;;25.90;99.90;;;;;;5003224;28;20046;-83
2021/06/16 11:40:36;;;;;;;7.35;5.07;;;26.10;99.90;;;;;;4997043;28;20108;-88
2021/06/16 11:43:03;;;;;;;10.45;6.32;;;26.30;99.90;;;;;;4990419;28;20105;-83
2021/06/16 11:45:32;;;;;;;8.55;5.78;;;26.50;99.90;;;;;;5000620;28;20045;-85
2021/06/16 11:48:00;;;;;;;8.57;5.78;;;26.40;99.90;;;;;;5003076;28;20050;-87
2021/06/16 11:50:31;;;;;;;7.00;4.80;;;26.50;99.90;;;;;;5004857;28;20092;-85
2021/06/16 11:53:02;;;;;;;5.55;4.53;;;26.40;99.90;;;;;;5010366;28;20057;-86
2021/06/16 11:55:48;;;;;;;10.40;5.65;;;26.60;99.90;;;;;;5006218;28;20110;-85
2021/06/16 11:58:35;;;;;;;7.78;5.45;;;26.70;99.90;;;;;;5007426;28;20078;-84
2021/06/16 12:01:12;;;;;;;9.10;5.75;;;26.60;99.90;;;;;;5005862;28;20042;-84
2021/06/16 12:03:58;;;;;;;5.32;4.80;;;26.70;99.90;;;;;;5005497;28;20085;-82
2021/06/16 12:06:25;;;;;;;8.25;6.00;;;26.70;99.90;;;;;;5007825;28;20116;-85
2021/06/16 12:09:00;;;;;;;6.80;5.38;;;26.70;99.90;;;;;;5004033;28;20049;-86
2021/06/16 12:11:31;;;;;;;7.10;4.80;;;26.70;99.90;;;;;;5010272;28;20456;-84
2021/06/16 12:14:03;;;;;;;7.72;4.60;;;26.70;99.90;;;;;;5008069;28;20049;-84
2021/06/16 12:16:41;;;;;;;8.52;5.32;;;26.70;99.90;;;;;;5021102;28;20062;-83
2021/06/16 12:19:19;;;;;;;5.63;4.15;;;26.70;99.90;;;;;;5007749;28;20420;-84
2021/06/16 12:21:55;;;;;;;6.20;4.00;;;26.70;99.90;;;;;;5011391;28;20125;-83
2021/06/16 12:24:35;;;;;;;8.13;4.28;;;26.80;99.90;;;;;;5009065;28;20038;-85
2021/06/16 12:27:13;;;;;;;4.40;4.00;;;27.00;99.90;;;;;;5004817;28;20136;-84
2021/06/16 12:29:54;;;;;;;6.30;4.03;;;27.30;99.90;;;;;;5001723;28;20082;-84
2021/06/16 12:32:33;;;;;;;8.48;4.43;;;27.50;99.90;;;;;;5012059;28;20127;-84
2021/06/16 12:37:54;;;;;;;7.10;4.75;;;27.60;99.90;;;;;;5027199;28;20045;-84
2021/06/16 12:40:34;;;;;;;6.90;4.90;;;27.50;99.90;;;;;;5022612;28;20045;-83
2021/06/16 12:43:02;;;;;;;;;;;27.60;99.90;;;;;;5028835;28;20097;-84
2021/06/16 12:45:41;;;;;;;5.82;3.35;;;27.70;99.90;;;;;;5028033;28;19921;-83
2021/06/16 12:48:19;;;;;;;7.15;3.78;;;27.70;99.90;;;;;;5022627;28;20071;-84
2021/06/16 12:51:03;;;;;;;6.10;3.72;;;27.80;99.90;;;;;;5019293;28;20117;-83
2021/06/16 12:53:39;;;;;;;7.88;4.03;;;27.90;99.90;;;;;;5021231;28;20615;-88
2021/06/16 12:56:07;;;;;;;6.20;3.50;;;28.00;99.90;;;;;;5020827;28;20487;-83
2021/06/16 12:58:47;;;;;;;;;;;28.10;99.90;;;;;;5023475;28;20508;-82
2021/06/16 13:01:20;;;;;;;8.50;3.33;;;28.10;99.90;;;;;;5018632;28;19921;-83
2021/06/16 13:03:49;;;;;;;10.48;3.67;;;28.10;99.90;;;;;;5023669;28;20054;-83
2021/06/16 13:06:16;;;;;;;;;;;28.10;99.90;;;;;;5019225;28;20057;-84
2021/06/16 13:08:45;;;;;;;5.90;3.95;;;28.00;99.90;;;;;;5025805;28;19921;-84
2021/06/16 13:11:20;;;;;;;6.50;3.47;;;28.00;99.90;;;;;;5021738;28;20049;-83
2021/06/16 13:13:48;;;;;;;7.22;3.55;;;28.00;99.90;;;;;;5023403;28;20061;-84
2021/06/16 13:16:23;;;;;;;6.00;4.00;;;28.10;99.90;;;;;;5024124;28;20100;-83
2021/06/16 13:18:51;;;;;;;5.75;3.30;;;28.20;99.90;;;;;;5024395;28;20045;-86
2021/06/16 13:21:18;;;;;;;7.60;3.53;;;28.20;99.90;;;;;;5023533;28;20092;-84
2021/06/16 13:23:53;;;;;;;4.60;2.97;;;28.30;99.90;;;;;;5022875;28;20060;-84
2021/06/16 13:26:21;;;;;;;7.70;3.17;;;28.50;99.90;;;;;;5023356;28;20834;-83
2021/06/16 13:29:03;;;;;;;4.73;3.40;;;28.60;99.90;;;;;;5024735;28;20054;-83
2021/06/16 13:31:30;;;;;;;8.48;3.47;;;28.50;99.90;;;;;;5022555;28;20775;-82
2021/06/16 13:34:12;;;;;;;6.03;3.10;;;28.50;99.90;;;;;;5024297;28;20140;-85
2021/06/16 13:36:40;;;;;;;5.75;3.35;;;28.40;99.90;;;;;;5024435;28;20097;-85
2021/06/16 13:39:08;;;;;;;8.60;3.50;;;28.40;99.90;;;;;;5026690;28;20104;-83
2021/06/16 13:41:36;;;;;;;6.88;3.50;;;28.30;99.90;;;;;;5017796;28;20103;-83
2021/06/16 13:44:03;;;;;;;8.15;3.30;;;28.20;99.90;;;;;;5029793;28;20062;-82
2021/06/16 13:46:30;;;;;;;4.53;3.37;;;28.00;99.90;;;;;;5029317;28;20045;-83
2021/06/16 13:48:57;;;;;;;5.18;3.38;;;27.90;99.90;;;;;;5021926;28;20054;-83
2021/06/16 13:51:24;;;;;;;4.60;3.05;;;27.80;99.90;;;;;;5023024;28;20049;-83
2021/06/16 13:53:51;;;;;;;5.72;3.38;;;27.80;99.90;;;;;;5036242;28;20078;-83
2021/06/16 13:56:18;;;;;;;5.20;2.83;;;27.70;99.90;;;;;;5028541;28;20045;-83
2021/06/16 13:58:45;;;;;;;9.05;3.28;;;27.70;99.90;;;;;;5025285;28;20073;-83
2021/06/16 14:01:12;;;;;;;10.60;3.15;;;27.40;99.90;;;;;;5027007;28;20041;-84
2021/06/16 14:03:38;;;;;;;12.55;3.53;;;27.40;99.90;;;;;;5021884;28;20132;-83
2021/06/16 14:06:06;;;;;;;5.22;3.40;;;27.30;99.80;;;;;;5025872;28;20058;-82
2021/06/16 14:08:33;;;;;;;4.30;2.90;;;27.20;99.90;;;;;;5022015;28;20053;-84
2021/06/16 14:11:02;;;;;;;5.35;3.15;;;27.10;99.90;;;;;;5026662;28;20060;-83
2021/06/16 14:13:29;;;;;;;10.95;3.78;;;27.00;99.90;;;;;;5017865;28;20037;-83
2021/06/16 14:15:56;;;;;;;8.68;4.90;;;26.80;99.90;;;;;;5025821;28;20046;-84
2021/06/16 14:18:23;;;;;;;8.13;4.18;;;26.60;99.90;;;;;;5021239;28;20054;-83
2021/06/16 14:20:50;;;;;;;12.30;4.43;;;26.40;99.90;;;;;;5021901;28;20471;-87
2021/06/16 14:23:18;;;;;;;7.95;4.55;;;26.30;99.90;;;;;;5026053;28;20048;-84
2021/06/16 14:25:45;;;;;;;10.20;5.40;;;26.20;99.90;;;;;;5023676;28;20053;-85
2021/06/16 14:28:13;;;;;;;11.60;5.43;;;25.90;99.90;;;;;;5021720;28;20045;-83
2021/06/16 14:30:41;;;;;;;9.25;5.47;;;25.80;99.90;;;;;;5024184;28;20054;-84
2021/06/16 14:33:08;;;;;;;9.98;5.05;;;25.50;99.90;;;;;;5024037;28;20080;-88
2021/06/16 14:35:35;;;;;;;7.93;5.68;;;25.40;99.90;;;;;;5024741;28;20524;-85
2021/06/16 14:38:02;;;;;;;11.10;6.10;;;25.30;99.90;;;;;;5019370;28;20045;-85
2021/06/16 14:40:30;;;;;;;9.05;5.65;;;25.20;99.90;;;;;;5026701;28;20059;-84
2021/06/16 14:42:57;;;;;;;9.93;6.03;;;25.00;99.90;;;;;;5027809;28;20111;-85
2021/06/16 14:45:24;;;;;;;9.88;6.07;;;25.00;99.90;;;;;;5026842;28;20065;-84
2021/06/16 14:47:51;;;;;;;9.45;6.15;;;24.90;99.90;;;;;;5029706;28;20084;-82
2021/06/16 14:50:19;;;;;;;16.38;6.25;;;24.80;99.90;;;;;;5021651;28;20046;-83
2021/06/16 14:52:46;;;;;;;9.57;6.17;;;24.60;99.90;;;;;;5016318;28;20054;-83
2021/06/16 14:55:13;;;;;;;11.90;6.70;;;24.50;99.90;;;;;;5028563;28;20076;-82
2021/06/16 14:57:43;;;;;;;10.32;7.57;;;24.50;99.90;;;;;;5022285;28;20053;-83
2021/06/16 15:00:10;;;;;;;;;;;24.40;99.90;;;;;;5025519;28;20038;-83
2021/06/16 15:02:46;;;;;;;11.98;7.60;;;24.30;99.90;;;;;;5019612;28;19929;-84
2021/06/16 15:05:14;;;;;;;14.00;7.80;;;24.30;99.90;;;;;;5015257;28;20125;-84
2021/06/16 15:07:43;;;;;;;12.77;7.30;;;24.40;99.90;;;;;;5020577;28;20073;-85
2021/06/16 15:10:11;;;;;;;15.55;7.47;;;24.40;99.90;;;;;;5024339;28;20503;-84
2021/06/16 15:12:38;;;;;;;12.20;8.10;;;24.40;99.90;;;;;;5020817;28;20145;-83
2021/06/16 15:15:06;;;;;;;9.15;6.97;;;24.40;99.90;;;;;;5029088;28;20460;-84
2021/06/16 15:17:34;;;;;;;12.48;7.50;;;24.40;99.90;;;;;;5029004;28;20132;-83
2021/06/16 15:20:03;;;;;;;10.35;6.70;;;24.50;99.90;;;;;;5033723;28;20053;-83
2021/06/16 15:22:29;;;;;;;;;;;24.50;99.90;;;;;;5026854;28;20049;-85
2021/06/16 15:24:57;;;;;;;11.77;6.47;;;24.50;99.90;;;;;;5026051;28;20355;-83
2021/06/16 15:27:24;;;;;;;11.95;6.70;;;24.60;99.90;;;;;;5025606;28;20075;-83
2021/06/16 15:29:55;;;;;;;11.95;6.57;;;24.60;99.90;;;;;;5028290;28;20058;-82
2021/06/16 15:32:22;;;;;;;7.85;5.95;;;24.50;99.90;;;;;;5043827;28;20064;-84
2021/06/16 15:34:50;;;;;;;10.38;7.20;;;24.50;99.90;;;;;;5050420;28;20049;-82
2021/06/16 15:37:17;;;;;;;13.68;6.90;;;24.60;99.90;;;;;;5048769;28;20052;-83
2021/06/16 15:39:46;;;;;;;11.02;6.82;;;24.60;99.90;;;;;;5047525;28;20400;-83
2021/06/16 15:42:17;;;;;;;11.88;6.30;;;24.60;99.90;;;;;;5030851;28;20095;-85
2021/06/16 15:44:45;;;;;;;12.30;5.90;;;24.60;99.90;;;;;;5030449;28;20103;-85
2021/06/16 15:47:12;;;;;;;11.90;5.43;;;24.60;99.90;;;;;;5047505;28;20064;-91
2021/06/16 15:49:39;;;;;;;9.98;5.47;;;24.60;99.90;;;;;;5031119;28;20107;-85
2021/06/16 15:52:06;;;;;;;10.73;5.70;;;24.60;99.90;;;;;;5052636;28;20099;-83
2021/06/16 15:54:33;;;;;;;11.25;5.10;;;24.60;99.90;;;;;;5033567;28;20058;-84
2021/06/16 15:57:01;;;;;;;15.25;6.15;;;24.60;99.90;;;;;;5050118;28;20515;-82
2021/06/16 15:59:28;;;;;;;9.63;6.28;;;24.60;99.90;;;;;;5035606;28;20059;-84
2021/06/16 16:01:55;;;;;;;10.52;5.90;;;24.50;99.90;;;;;;5052484;28;20040;-81
2021/06/16 16:04:22;;;;;;;12.02;5.97;;;24.50;99.90;;;;;;5032332;28;20570;-84
2021/06/16 16:06:49;;;;;;;13.80;5.78;;;24.40;99.90;;;;;;5033636;28;20053;-82
2021/06/16 16:09:16;;;;;;;8.60;5.43;;;24.40;99.90;;;;;;5033769;28;20040;-83
2021/06/16 16:11:43;;;;;;;9.73;5.07;;;24.40;99.90;;;;;;5048528;28;20049;-82
2021/06/16 16:14:10;;;;;;;12.90;5.38;;;24.30;99.90;;;;;;5050724;28;20098;-83
2021/06/16 16:16:36;;;;;;;10.68;5.40;;;24.30;99.90;;;;;;5032159;28;20065;-82
2021/06/16 16:19:04;;;;;;;13.45;5.80;;;24.20;99.90;;;;;;5030785;28;20041;-84
2021/06/16 16:21:32;;;;;;;12.98;6.25;;;24.00;99.90;;;;;;5048346;28;20045;-89
2021/06/16 16:23:59;;;;;;;12.57;6.82;;;23.80;99.90;;;;;;5049828;28;20072;-84
2021/06/16 16:26:26;;;;;;;14.02;6.93;;;23.60;99.90;;;;;;5049376;28;20107;-82
2021/06/16 16:28:53;;;;;;;12.70;7.15;;;23.40;99.90;;;;;;5034801;28;20041;-84
2021/06/16 16:31:20;;;;;;;13.98;7.43;;;23.10;99.90;;;;;;5033076;28;20076;-86
2021/06/16 16:33:47;;;;;;;13.65;7.00;;;22.90;99.90;;;;;;5031879;28;20063;-82
2021/06/16 16:36:14;;;;;;;12.90;7.63;;;22.60;99.90;;;;;;5035615;28;20420;-82
2021/06/16 16:38:42;;;;;;;12.45;7.63;;;22.40;99.90;;;;;;5033133;28;20056;-82
2021/06/16 16:41:09;;;;;;;11.40;7.82;;;22.10;99.90;;;;;;5031509;28;20098;-83
2021/06/16 16:43:36;;;;;;;15.05;8.48;;;21.90;99.90;;;;;;5034673;28;20075;-81
2021/06/16 16:46:03;;;;;;;15.77;8.98;;;21.80;99.90;;;;;;5034323;28;20041;-83
2021/06/16 16:48:31;;;;;;;11.20;8.55;;;21.60;99.90;;;;;;5036384;28;20491;-80
2021/06/16 16:50:58;;;;;;;13.85;9.32;;;21.50;99.90;;;;;;5032640;28;20049;-80
2021/06/16 16:53:25;;;;;;;18.70;10.35;;;21.30;99.90;;;;;;5035899;28;20049;-78
2021/06/16 16:55:52;;;;;;;12.82;10.45;;;21.20;99.90;;;;;;5051133;28;20045;-79
2021/06/16 16:58:19;;;;;;;14.25;11.15;;;21.10;99.90;;;;;;5042219;28;20392;-80
2021/06/16 17:00:46;;;;;;;14.82;10.88;;;21.00;99.90;;;;;;5044485;28;20084;-79
2021/06/16 17:03:13;;;;;;;15.75;12.05;;;20.90;99.90;;;;;;5046964;28;20049;-79
2021/06/16 17:05:40;;;;;;;15.65;12.15;;;20.90;99.90;;;;;;5050225;28;20110;-79
2021/06/16 17:08:07;;;;;;;21.02;11.93;;;20.80;99.90;;;;;;5034687;28;20079;-80
2021/06/16 17:10:34;;;;;;;16.50;12.35;;;20.70;99.90;;;;;;5046058;28;20096;-79
2021/06/16 17:13:01;;;;;;;15.20;11.85;;;20.60;99.90;;;;;;5039434;28;20049;-78
2021/06/16 17:15:28;;;;;;;18.00;13.07;;;20.50;99.90;;;;;;5039962;28;20079;-79
2021/06/16 17:17:55;;;;;;;17.13;12.95;;;20.50;99.90;;;;;;5052239;28;20107;-80
2021/06/16 17:20:24;;;;;;;22.73;12.35;;;20.50;99.90;;;;;;5033693;28;20045;-79
2021/06/16 17:22:52;;;;;;;18.08;12.30;;;20.40;99.90;;;;;;5041383;28;20053;-79
2021/06/16 17:25:21;;;;;;;17.30;11.82;;;20.40;99.90;;;;;;5049547;28;20049;-79
2021/06/16 17:27:49;;;;;;;16.77;12.45;;;20.30;99.90;;;;;;5046961;28;20091;-80
2021/06/16 17:30:18;;;;;;;15.45;11.93;;;20.20;99.90;;;;;;5021081;28;20057;-83
2021/06/16 17:32:48;;;;;;;21.52;13.32;;;20.20;99.90;;;;;;5032429;28;20067;-81
2021/06/16 17:35:17;;;;;;;17.40;12.95;;;20.20;99.90;;;;;;5027404;28;20160;-81
2021/06/16 17:37:46;;;;;;;16.92;13.82;;;20.20;99.90;;;;;;5028180;28;20478;-85
2021/06/16 17:40:14;;;;;;;22.17;14.48;;;20.10;99.90;;;;;;5018528;28;20041;-82
2021/06/16 17:42:48;;;;;;;;;;;20.10;99.90;;;;;;5031156;28;20464;-82
2021/06/16 17:45:20;;;;;;;18.88;14.77;;;20.00;99.90;;;;;;5029801;28;20097;-83
2021/06/16 17:47:48;;;;;;;21.35;13.95;;;20.00;99.90;;;;;;5024810;28;20077;-82
2021/06/16 17:50:15;;;;;;;24.45;15.15;;;20.00;99.90;;;;;;5029475;28;20041;-83
2021/06/16 17:52:44;;;;;;;18.00;13.50;;;20.00;99.90;;;;;;5046396;28;20057;-86
2021/06/16 17:55:12;;;;;;;17.75;13.63;;;20.00;99.90;;;;;;5049494;28;20060;-85
2021/06/16 17:57:41;;;;;;;18.67;13.90;;;19.90;99.90;;;;;;5031758;28;20131;-87
2021/06/16 18:00:10;;;;;;;21.35;13.40;;;19.90;99.90;;;;;;5032073;28;20557;-84
2021/06/16 18:02:39;;;;;;;19.17;14.35;;;19.90;99.90;;;;;;5033819;28;20099;-85
2021/06/16 18:05:07;;;;;;;19.58;14.35;;;19.80;99.90;;;;;;5027321;28;20053;-86
2021/06/16 18:07:34;;;;;;;;;;;19.80;99.90;;;;;;5052941;28;20500;-87
2021/06/16 18:10:03;;;;;;;26.52;15.23;;;19.80;99.90;;;;;;5047372;28;19947;-86
2021/06/16 18:12:30;;;;;;;21.65;14.20;;;19.80;99.90;;;;;;5027773;28;20038;-85
2021/06/16 18:14:57;;;;;;;18.98;14.00;;;19.80;99.90;;;;;;5020777;28;20145;-84
2021/06/16 18:17:25;;;;;;;16.65;13.10;;;19.70;99.90;;;;;;5020446;28;20523;-86
2021/06/16 18:19:52;;;;;;;22.92;13.98;;;19.70;99.90;;;;;;5035984;28;20057;-86
2021/06/16 18:22:19;;;;;;;17.58;12.02;;;19.70;99.90;;;;;;5049272;28;20048;-83
2021/06/16 18:24:47;;;;;;;18.40;13.25;;;19.60;99.90;;;;;;5030346;28;20077;-82
2021/06/16 18:27:14;;;;;;;19.40;12.60;;;19.50;99.90;;;;;;5020368;28;20049;-83
2021/06/16 18:29:41;;;;;;;15.32;11.88;;;19.30;99.90;;;;;;5041842;28;20098;-80
2021/06/16 18:32:08;;;;;;;17.38;12.35;;;19.30;99.90;;;;;;5016166;28;20053;-83
2021/06/16 18:34:35;;;;;;;17.58;11.93;;;19.10;99.90;;;;;;5020281;28;20131;-81
2021/06/16 18:37:03;;;;;;;17.45;11.55;;;19.10;99.90;;;;;;5015067;28;20050;-85
2021/06/16 18:39:32;;;;;;;;;;;19.00;99.90;;;;;;5018696;28;20045;-85
2021/06/16 18:42:03;;;;;;;14.45;11.18;;;18.90;99.90;;;;;;5018268;28;19975;-79
2021/06/16 18:44:31;;;;;;;14.75;11.40;;;18.70;99.90;;;;;;5013388;28;20451;-83
2021/06/16 18:47:00;;;;;;;16.10;11.55;;;18.80;99.90;;;;;;5015553;28;20548;-82
2021/06/16 18:49:31;;;;;;;14.85;11.25;;;18.70;99.90;;;;;;5018009;28;20056;-84
2021/06/16 18:51:58;;;;;;;15.73;11.18;;;18.60;99.90;;;;;;5028201;28;20053;-84
2021/06/16 18:54:25;;;;;;;15.95;11.57;;;18.60;99.90;;;;;;5016060;28;20096;-88
2021/06/16 18:56:56;;;;;;;15.85;10.65;;;18.50;99.90;;;;;;5016691;28;20105;-86
2021/06/16 18:59:28;;;;;;;12.65;10.50;;;18.40;99.90;;;;;;5018256;28;20567;-82
2021/06/16 19:02:07;;;;;;;13.82;10.70;;;18.40;99.90;;;;;;5017860;28;20393;-81
2021/06/16 19:04:40;;;;;;;17.42;10.88;;;18.30;99.90;;;;;;5016457;28;20063;-82
2021/06/16 19:07:08;;;;;;;14.73;9.85;;;18.40;99.90;;;;;;5019103;28;20049;-84
2021/06/16 19:09:37;;;;;;;13.20;8.45;;;18.70;99.90;;;;;;5022509;28;20109;-80
2021/06/16 19:12:05;;;;;;;13.00;7.43;;;19.10;99.90;;;;;;5020277;28;20132;-82
2021/06/16 19:14:32;;;;;;;10.45;7.38;;;19.60;99.90;;;;;;5019321;28;20480;-80
2021/06/16 19:17:00;;;;;;;9.35;7.55;;;20.20;99.90;;;;;;5019925;28;20057;-80
2021/06/16 19:19:29;;;;;;;11.57;7.33;;;20.70;99.90;;;;;;5012161;28;20113;-83
2021/06/16 19:21:57;;;;;;;10.75;7.45;;;20.90;99.90;;;;;;5018796;28;20745;-83
2021/06/16 19:24:26;;;;;;;11.68;8.52;;;20.80;99.90;;;;;;5020827;28;20508;-82
2021/06/16 19:26:54;;;;;;;13.18;9.20;;;20.70;99.90;;;;;;5026408;28;20046;-85
2021/06/16 19:29:22;;;;;;;14.57;10.23;;;20.40;99.90;;;;;;5023636;28;20054;-84
2021/06/16 19:31:49;;;;;;;11.23;9.30;;;20.10;99.90;;;;;;5012780;28;20101;-85
2021/06/16 19:34:16;;;;;;;13.23;10.40;;;19.70;99.90;;;;;;5023008;28;20512;-80
2021/06/16 19:36:43;;;;;;;11.70;9.82;;;19.50;99.90;;;;;;5018870;28;20420;-83
2021/06/16 19:39:14;;;;;;;13.93;10.05;;;19.30;99.90;;;;;;5018348;28;20050;-82
2021/06/16 19:41:41;;;;;;;13.93;10.45;;;19.10;99.90;;;;;;5026829;28;20049;-80
2021/06/16 19:44:08;;;;;;;14.35;10.82;;;19.00;99.90;;;;;;5018917;28;20054;-81
2021/06/16 19:46:35;;;;;;;16.13;11.00;;;18.90;99.90;;;;;;5017982;28;20101;-80
2021/06/16 19:49:06;;;;;;;13.65;10.63;;;18.80;99.90;;;;;;5024510;28;20133;-80
2021/06/16 19:51:33;;;;;;;14.40;10.52;;;18.70;99.90;;;;;;5014708;28;20099;-83
2021/06/16 19:54:00;;;;;;;13.88;9.95;;;18.50;99.90;;;;;;5021496;28;20069;-82
2021/06/16 19:56:29;;;;;;;17.67;10.88;;;18.30;99.90;;;;;;5026414;28;20045;-81
2021/06/16 19:58:57;;;;;;;15.85;11.23;;;18.20;99.90;;;;;;5021108;28;20049;-84
2021/06/16 20:01:25;;;;;;;15.18;11.30;;;18.10;99.90;;;;;;5020218;28;20108;-83
2021/06/16 20:03:53;;;;;;;15.15;11.63;;;18.00;99.90;;;;;;5022949;28;20077;-81
2021/06/16 20:06:21;;;;;;;17.75;12.23;;;17.90;99.90;;;;;;5028739;28;20053;-81
2021/06/16 20:08:48;;;;;;;;;;;17.80;99.90;;;;;;5026337;28;20107;-81
2021/06/16 20:11:15;;;;;;;14.73;11.48;;;17.70;99.90;;;;;;5028451;28;19968;-84
2021/06/16 20:13:44;;;;;;;16.85;11.77;;;17.70;99.90;;;;;;5026029;28;20080;-85
2021/06/16 20:16:11;;;;;;;17.67;11.63;;;17.70;99.90;;;;;;5023731;28;20500;-84
2021/06/16 20:18:38;;;;;;;16.85;11.95;;;17.70;99.90;;;;;;5026009;28;20182;-81
2021/06/16 20:21:05;;;;;;;15.63;11.45;;;17.60;99.90;;;;;;5024295;28;20046;-81
2021/06/16 20:23:32;;;;;;;18.20;11.57;;;17.60;99.90;;;;;;5025710;28;20103;-81
2021/06/16 20:25:59;;;;;;;18.08;11.70;;;17.50;99.90;;;;;;5025850;28;20077;-80
2021/06/16 20:28:26;;;;;;;17.58;12.15;;;17.50;99.90;;;;;;5017864;28;20096;-82
2021/06/16 20:30:53;;;;;;;17.13;12.10;;;17.40;99.90;;;;;;5022278;28;20046;-82